sensor_id;sensor_type;location;lat;lon;timestamp;P1;durP1;ratioP1;P2;durP2;ratioP2
4182;SDS011;2105;52.300;9.182;2023-05-18T00:01:12;7.67;;;5.33;;
4182;SDS011;2105;52.300;9.182;2023-05-18T00:03:39;11.47;;;5.43;;
4182;SDS011;2105;52.300;9.182;2023-05-18T00:06:06;7.40;;;5.23;;
4182;SDS011;2105;52.300;9.182;2023-05-18T00:08:36;12.10;;;5.10;;
4182;SDS011;2105;52.300;9.182;2023-05-18T00:11:03;8.50;;;4.83;;
4182;SDS011;2105;52.300;9.182;2023-05-18T00:13:31;11.87;;;5.10;;
4182;SDS011;2105;52.300;9.182;2023-05-18T00:15:58;8.60;;;4.90;;
4182;SDS011;2105;52.300;9.182;2023-05-18T00:18:24;7.97;;;5.13;;
4182;SDS011;2105;52.300;9.182;2023-05-18T00:20:51;9.70;;;5.00;;
4182;SDS011;2105;52.300;9.182;2023-05-18T00:23:22;6.77;;;5.33;;
4182;SDS011;2105;52.300;9.182;2023-05-18T00:25:51;7.97;;;5.17;;
4182;SDS011;2105;52.300;9.182;2023-05-18T00:28:18;11.20;;;5.20;;
4182;SDS011;2105;52.300;9.182;2023-05-18T00:30:44;8.03;;;4.60;;
4182;SDS011;2105;52.300;9.182;2023-05-18T00:33:11;6.90;;;4.93;;
4182;SDS011;2105;52.300;9.182;2023-05-18T00:35:37;14.53;;;5.03;;
4182;SDS011;2105;52.300;9.182;2023-05-18T00:38:04;10.50;;;5.10;;
4182;SDS011;2105;52.300;9.182;2023-05-18T00:40:31;14.67;;;5.50;;
4182;SDS011;2105;52.300;9.182;2023-05-18T00:42:59;9.63;;;5.40;;
4182;SDS011;2105;52.300;9.182;2023-05-18T00:45:26;6.47;;;4.97;;
4182;SDS011;2105;52.300;9.182;2023-05-18T00:47:53;15.13;;;5.63;;
4182;SDS011;2105;52.300;9.182;2023-05-18T00:50:19;16.30;;;5.40;;
4182;SDS011;2105;52.300;9.182;2023-05-18T00:52:46;8.07;;;4.70;;
4182;SDS011;2105;52.300;9.182;2023-05-18T00:55:13;9.07;;;4.80;;
4182;SDS011;2105;52.300;9.182;2023-05-18T00:57:39;11.80;;;5.50;;
4182;SDS011;2105;52.300;9.182;2023-05-18T01:00:10;12.17;;;5.37;;
4182;SDS011;2105;52.300;9.182;2023-05-18T01:02:37;7.90;;;5.53;;
4182;SDS011;2105;52.300;9.182;2023-05-18T01:05:06;13.10;;;5.20;;
4182;SDS011;2105;52.300;9.182;2023-05-18T01:07:35;8.80;;;5.07;;
4182;SDS011;2105;52.300;9.182;2023-05-18T01:10:02;6.83;;;5.00;;
4182;SDS011;2105;52.300;9.182;2023-05-18T01:12:31;12.27;;;5.07;;
4182;SDS011;2105;52.300;9.182;2023-05-18T01:15:07;14.57;;;5.13;;
4182;SDS011;2105;52.300;9.182;2023-05-18T01:17:42;7.23;;;4.43;;
4182;SDS011;2105;52.300;9.182;2023-05-18T01:20:16;16.00;;;4.90;;
4182;SDS011;2105;52.300;9.182;2023-05-18T01:23:00;11.23;;;5.00;;
4182;SDS011;2105;52.300;9.182;2023-05-18T01:25:44;10.53;;;5.10;;
4182;SDS011;2105;52.300;9.182;2023-05-18T01:28:16;13.83;;;5.77;;
4182;SDS011;2105;52.300;9.182;2023-05-18T01:30:46;10.73;;;4.87;;
4182;SDS011;2105;52.300;9.182;2023-05-18T01:33:13;16.53;;;5.10;;
4182;SDS011;2105;52.300;9.182;2023-05-18T01:35:40;6.33;;;4.77;;
4182;SDS011;2105;52.300;9.182;2023-05-18T01:38:11;9.30;;;4.90;;
4182;SDS011;2105;52.300;9.182;2023-05-18T01:40:40;10.50;;;5.20;;
4182;SDS011;2105;52.300;9.182;2023-05-18T01:43:14;9.70;;;4.57;;
4182;SDS011;2105;52.300;9.182;2023-05-18T01:45:46;12.17;;;5.90;;
4182;SDS011;2105;52.300;9.182;2023-05-18T01:48:17;7.90;;;4.83;;
4182;SDS011;2105;52.300;9.182;2023-05-18T01:50:47;10.63;;;4.83;;
4182;SDS011;2105;52.300;9.182;2023-05-18T01:53:18;5.40;;;4.20;;
4182;SDS011;2105;52.300;9.182;2023-05-18T01:55:49;10.57;;;5.13;;
4182;SDS011;2105;52.300;9.182;2023-05-18T01:58:20;10.23;;;4.80;;
4182;SDS011;2105;52.300;9.182;2023-05-18T02:00:47;11.00;;;4.97;;
4182;SDS011;2105;52.300;9.182;2023-05-18T02:03:14;6.23;;;4.60;;
4182;SDS011;2105;52.300;9.182;2023-05-18T02:05:42;8.70;;;4.80;;
4182;SDS011;2105;52.300;9.182;2023-05-18T02:08:08;10.47;;;4.93;;
4182;SDS011;2105;52.300;9.182;2023-05-18T02:10:35;14.33;;;5.10;;
4182;SDS011;2105;52.300;9.182;2023-05-18T02:13:02;7.50;;;4.73;;
4182;SDS011;2105;52.300;9.182;2023-05-18T02:15:30;10.87;;;4.90;;
4182;SDS011;2105;52.300;9.182;2023-05-18T02:17:57;11.13;;;5.13;;
4182;SDS011;2105;52.300;9.182;2023-05-18T02:20:23;6.00;;;4.50;;
4182;SDS011;2105;52.300;9.182;2023-05-18T02:22:50;11.80;;;4.83;;
4182;SDS011;2105;52.300;9.182;2023-05-18T02:25:17;17.40;;;6.03;;
4182;SDS011;2105;52.300;9.182;2023-05-18T02:27:43;8.23;;;4.97;;
4182;SDS011;2105;52.300;9.182;2023-05-18T02:30:11;9.80;;;4.80;;
4182;SDS011;2105;52.300;9.182;2023-05-18T02:32:39;7.17;;;4.77;;
4182;SDS011;2105;52.300;9.182;2023-05-18T02:35:07;8.90;;;5.00;;
4182;SDS011;2105;52.300;9.182;2023-05-18T02:37:34;9.33;;;5.20;;
4182;SDS011;2105;52.300;9.182;2023-05-18T02:40:04;12.03;;;5.00;;
4182;SDS011;2105;52.300;9.182;2023-05-18T02:42:32;6.83;;;4.97;;
4182;SDS011;2105;52.300;9.182;2023-05-18T02:44:58;9.97;;;5.10;;
4182;SDS011;2105;52.300;9.182;2023-05-18T02:47:26;7.27;;;4.87;;
4182;SDS011;2105;52.300;9.182;2023-05-18T02:49:54;11.47;;;5.20;;
4182;SDS011;2105;52.300;9.182;2023-05-18T02:52:21;9.80;;;5.33;;
4182;SDS011;2105;52.300;9.182;2023-05-18T02:54:47;9.50;;;5.40;;
4182;SDS011;2105;52.300;9.182;2023-05-18T02:57:14;5.50;;;4.93;;
4182;SDS011;2105;52.300;9.182;2023-05-18T02:59:41;6.20;;;5.47;;
4182;SDS011;2105;52.300;9.182;2023-05-18T03:02:08;6.83;;;5.33;;
4182;SDS011;2105;52.300;9.182;2023-05-18T03:04:38;10.40;;;5.40;;
4182;SDS011;2105;52.300;9.182;2023-05-18T03:07:07;5.20;;;4.70;;
4182;SDS011;2105;52.300;9.182;2023-05-18T03:09:34;7.93;;;5.27;;
4182;SDS011;2105;52.300;9.182;2023-05-18T03:12:01;7.40;;;4.87;;
4182;SDS011;2105;52.300;9.182;2023-05-18T03:14:27;10.67;;;5.80;;
4182;SDS011;2105;52.300;9.182;2023-05-18T03:16:54;13.33;;;5.60;;
4182;SDS011;2105;52.300;9.182;2023-05-18T03:19:21;12.00;;;5.00;;
4182;SDS011;2105;52.300;9.182;2023-05-18T03:21:48;7.60;;;4.80;;
4182;SDS011;2105;52.300;9.182;2023-05-18T03:24:16;6.23;;;5.37;;
4182;SDS011;2105;52.300;9.182;2023-05-18T03:26:44;7.30;;;5.17;;
4182;SDS011;2105;52.300;9.182;2023-05-18T03:29:10;7.43;;;5.90;;
4182;SDS011;2105;52.300;9.182;2023-05-18T03:31:37;10.97;;;5.50;;
4182;SDS011;2105;52.300;9.182;2023-05-18T03:34:04;9.53;;;5.20;;
4182;SDS011;2105;52.300;9.182;2023-05-18T03:36:31;6.00;;;5.40;;
4182;SDS011;2105;52.300;9.182;2023-05-18T03:38:59;14.53;;;5.60;;
4182;SDS011;2105;52.300;9.182;2023-05-18T03:41:27;10.87;;;5.37;;
4182;SDS011;2105;52.300;9.182;2023-05-18T03:43:55;6.37;;;5.77;;
4182;SDS011;2105;52.300;9.182;2023-05-18T03:46:22;7.00;;;5.60;;
4182;SDS011;2105;52.300;9.182;2023-05-18T03:48:49;12.33;;;5.90;;
4182;SDS011;2105;52.300;9.182;2023-05-18T03:51:17;8.37;;;5.80;;
4182;SDS011;2105;52.300;9.182;2023-05-18T03:53:44;7.00;;;5.50;;
4182;SDS011;2105;52.300;9.182;2023-05-18T03:56:11;6.73;;;5.10;;
4182;SDS011;2105;52.300;9.182;2023-05-18T03:58:39;9.27;;;5.70;;
4182;SDS011;2105;52.300;9.182;2023-05-18T04:01:06;6.53;;;5.60;;
4182;SDS011;2105;52.300;9.182;2023-05-18T04:03:33;7.30;;;5.10;;
4182;SDS011;2105;52.300;9.182;2023-05-18T04:05:59;6.07;;;5.50;;
4182;SDS011;2105;52.300;9.182;2023-05-18T04:08:26;7.00;;;6.17;;
4182;SDS011;2105;52.300;9.182;2023-05-18T04:10:54;16.17;;;5.70;;
4182;SDS011;2105;52.300;9.182;2023-05-18T04:13:21;6.73;;;5.67;;
4182;SDS011;2105;52.300;9.182;2023-05-18T04:15:49;11.60;;;5.67;;
4182;SDS011;2105;52.300;9.182;2023-05-18T04:18:16;7.13;;;5.53;;
4182;SDS011;2105;52.300;9.182;2023-05-18T04:20:42;8.80;;;5.60;;
4182;SDS011;2105;52.300;9.182;2023-05-18T04:23:10;8.33;;;5.27;;
4182;SDS011;2105;52.300;9.182;2023-05-18T04:25:36;7.00;;;5.90;;
4182;SDS011;2105;52.300;9.182;2023-05-18T04:28:05;11.50;;;6.23;;
4182;SDS011;2105;52.300;9.182;2023-05-18T04:30:32;17.43;;;6.10;;
4182;SDS011;2105;52.300;9.182;2023-05-18T04:33:00;12.90;;;6.30;;
4182;SDS011;2105;52.300;9.182;2023-05-18T04:35:28;11.53;;;6.23;;
4182;SDS011;2105;52.300;9.182;2023-05-18T04:37:55;7.27;;;6.10;;
4182;SDS011;2105;52.300;9.182;2023-05-18T04:40:22;10.80;;;6.37;;
4182;SDS011;2105;52.300;9.182;2023-05-18T04:42:49;16.37;;;6.77;;
4182;SDS011;2105;52.300;9.182;2023-05-18T04:45:16;10.57;;;7.13;;
4182;SDS011;2105;52.300;9.182;2023-05-18T04:47:43;9.47;;;6.67;;
4182;SDS011;2105;52.300;9.182;2023-05-18T04:50:13;9.23;;;6.17;;
4182;SDS011;2105;52.300;9.182;2023-05-18T04:52:41;10.43;;;6.67;;
4182;SDS011;2105;52.300;9.182;2023-05-18T04:55:11;12.67;;;7.10;;
4182;SDS011;2105;52.300;9.182;2023-05-18T04:57:38;18.30;;;6.07;;
4182;SDS011;2105;52.300;9.182;2023-05-18T05:00:06;9.10;;;6.50;;
4182;SDS011;2105;52.300;9.182;2023-05-18T05:02:34;9.20;;;5.70;;
4182;SDS011;2105;52.300;9.182;2023-05-18T05:05:00;7.83;;;6.03;;
4182;SDS011;2105;52.300;9.182;2023-05-18T05:07:29;11.10;;;6.47;;
4182;SDS011;2105;52.300;9.182;2023-05-18T05:09:55;13.40;;;6.37;;
4182;SDS011;2105;52.300;9.182;2023-05-18T05:12:22;10.90;;;5.90;;
4182;SDS011;2105;52.300;9.182;2023-05-18T05:14:48;10.80;;;6.53;;
4182;SDS011;2105;52.300;9.182;2023-05-18T05:17:15;12.40;;;6.97;;
4182;SDS011;2105;52.300;9.182;2023-05-18T05:19:42;12.03;;;7.13;;
4182;SDS011;2105;52.300;9.182;2023-05-18T05:22:08;9.67;;;7.10;;
4182;SDS011;2105;52.300;9.182;2023-05-18T05:24:37;15.73;;;8.63;;
4182;SDS011;2105;52.300;9.182;2023-05-18T05:27:04;12.53;;;8.37;;
4182;SDS011;2105;52.300;9.182;2023-05-18T05:29:31;18.80;;;8.70;;
4182;SDS011;2105;52.300;9.182;2023-05-18T05:31:57;15.37;;;9.23;;
4182;SDS011;2105;52.300;9.182;2023-05-18T05:34:24;12.10;;;9.10;;
4182;SDS011;2105;52.300;9.182;2023-05-18T05:36:51;14.93;;;10.10;;
4182;SDS011;2105;52.300;9.182;2023-05-18T05:39:17;15.00;;;9.90;;
4182;SDS011;2105;52.300;9.182;2023-05-18T05:41:45;16.20;;;9.90;;
4182;SDS011;2105;52.300;9.182;2023-05-18T05:44:12;18.73;;;10.73;;
4182;SDS011;2105;52.300;9.182;2023-05-18T05:46:39;20.83;;;10.40;;
4182;SDS011;2105;52.300;9.182;2023-05-18T05:49:05;13.20;;;10.80;;
4182;SDS011;2105;52.300;9.182;2023-05-18T05:51:33;13.33;;;10.80;;
4182;SDS011;2105;52.300;9.182;2023-05-18T05:54:00;22.87;;;11.43;;
4182;SDS011;2105;52.300;9.182;2023-05-18T05:56:27;14.30;;;11.27;;
4182;SDS011;2105;52.300;9.182;2023-05-18T05:58:55;13.60;;;10.90;;
4182;SDS011;2105;52.300;9.182;2023-05-18T06:01:22;12.77;;;11.37;;
4182;SDS011;2105;52.300;9.182;2023-05-18T06:03:49;13.83;;;11.67;;
4182;SDS011;2105;52.300;9.182;2023-05-18T06:06:15;13.63;;;11.40;;
4182;SDS011;2105;52.300;9.182;2023-05-18T06:08:42;15.67;;;11.07;;
4182;SDS011;2105;52.300;9.182;2023-05-18T06:11:09;23.77;;;11.43;;
4182;SDS011;2105;52.300;9.182;2023-05-18T06:13:36;15.07;;;11.50;;
4182;SDS011;2105;52.300;9.182;2023-05-18T06:16:05;19.60;;;11.40;;
4182;SDS011;2105;52.300;9.182;2023-05-18T06:18:31;18.60;;;11.57;;
4182;SDS011;2105;52.300;9.182;2023-05-18T06:20:58;14.17;;;12.00;;
4182;SDS011;2105;52.300;9.182;2023-05-18T06:23:25;21.40;;;12.40;;
4182;SDS011;2105;52.300;9.182;2023-05-18T06:25:52;13.33;;;11.93;;
4182;SDS011;2105;52.300;9.182;2023-05-18T06:28:18;13.33;;;12.10;;
4182;SDS011;2105;52.300;9.182;2023-05-18T06:30:45;14.63;;;12.80;;
4182;SDS011;2105;52.300;9.182;2023-05-18T06:33:13;13.53;;;12.10;;
4182;SDS011;2105;52.300;9.182;2023-05-18T06:35:40;14.50;;;12.40;;
4182;SDS011;2105;52.300;9.182;2023-05-18T06:38:07;26.33;;;12.60;;
4182;SDS011;2105;52.300;9.182;2023-05-18T06:40:34;16.90;;;12.87;;
4182;SDS011;2105;52.300;9.182;2023-05-18T06:43:01;14.10;;;12.30;;
4182;SDS011;2105;52.300;9.182;2023-05-18T06:45:27;20.70;;;12.20;;
4182;SDS011;2105;52.300;9.182;2023-05-18T06:47:54;16.00;;;11.80;;
4182;SDS011;2105;52.300;9.182;2023-05-18T06:50:22;13.90;;;12.60;;
4182;SDS011;2105;52.300;9.182;2023-05-18T06:52:48;18.37;;;12.77;;
4182;SDS011;2105;52.300;9.182;2023-05-18T06:55:16;15.80;;;12.50;;
4182;SDS011;2105;52.300;9.182;2023-05-18T06:57:43;21.30;;;12.73;;
4182;SDS011;2105;52.300;9.182;2023-05-18T07:00:10;14.93;;;13.00;;
4182;SDS011;2105;52.300;9.182;2023-05-18T07:02:37;17.13;;;13.70;;
4182;SDS011;2105;52.300;9.182;2023-05-18T07:05:04;16.77;;;13.23;;
4182;SDS011;2105;52.300;9.182;2023-05-18T07:07:34;17.40;;;13.10;;
4182;SDS011;2105;52.300;9.182;2023-05-18T07:10:01;14.50;;;13.00;;
4182;SDS011;2105;52.300;9.182;2023-05-18T07:12:28;16.50;;;13.20;;
4182;SDS011;2105;52.300;9.182;2023-05-18T07:14:55;15.70;;;12.53;;
4182;SDS011;2105;52.300;9.182;2023-05-18T07:17:22;16.27;;;12.60;;
4182;SDS011;2105;52.300;9.182;2023-05-18T07:19:49;17.20;;;13.17;;
4182;SDS011;2105;52.300;9.182;2023-05-18T07:22:15;15.53;;;13.90;;
4182;SDS011;2105;52.300;9.182;2023-05-18T07:24:43;16.70;;;13.90;;
4182;SDS011;2105;52.300;9.182;2023-05-18T07:27:10;16.97;;;14.30;;
4182;SDS011;2105;52.300;9.182;2023-05-18T07:29:37;17.47;;;14.10;;
4182;SDS011;2105;52.300;9.182;2023-05-18T07:32:03;16.27;;;14.00;;
4182;SDS011;2105;52.300;9.182;2023-05-18T07:34:30;14.70;;;13.20;;
4182;SDS011;2105;52.300;9.182;2023-05-18T07:36:57;16.20;;;14.50;;
4182;SDS011;2105;52.300;9.182;2023-05-18T07:39:24;20.20;;;14.10;;
4182;SDS011;2105;52.300;9.182;2023-05-18T07:41:54;19.73;;;14.07;;
4182;SDS011;2105;52.300;9.182;2023-05-18T07:44:21;15.20;;;13.40;;
4182;SDS011;2105;52.300;9.182;2023-05-18T07:46:48;15.23;;;13.83;;
4182;SDS011;2105;52.300;9.182;2023-05-18T07:49:14;15.60;;;14.13;;
4182;SDS011;2105;52.300;9.182;2023-05-18T07:51:41;16.70;;;14.10;;
4182;SDS011;2105;52.300;9.182;2023-05-18T07:54:08;19.77;;;15.00;;
4182;SDS011;2105;52.300;9.182;2023-05-18T07:56:35;16.90;;;14.63;;
4182;SDS011;2105;52.300;9.182;2023-05-18T07:59:03;16.90;;;14.50;;
4182;SDS011;2105;52.300;9.182;2023-05-18T08:01:29;16.97;;;15.23;;
4182;SDS011;2105;52.300;9.182;2023-05-18T08:03:56;26.80;;;15.23;;
4182;SDS011;2105;52.300;9.182;2023-05-18T08:06:23;17.23;;;14.00;;
4182;SDS011;2105;52.300;9.182;2023-05-18T08:08:50;16.03;;;14.43;;
4182;SDS011;2105;52.300;9.182;2023-05-18T08:11:16;15.37;;;13.60;;
4182;SDS011;2105;52.300;9.182;2023-05-18T08:13:43;16.80;;;13.60;;
4182;SDS011;2105;52.300;9.182;2023-05-18T08:16:11;15.57;;;13.97;;
4182;SDS011;2105;52.300;9.182;2023-05-18T08:18:38;16.07;;;13.90;;
4182;SDS011;2105;52.300;9.182;2023-05-18T08:21:05;15.63;;;13.90;;
4182;SDS011;2105;52.300;9.182;2023-05-18T08:23:33;17.37;;;14.40;;
4182;SDS011;2105;52.300;9.182;2023-05-18T08:26:00;18.50;;;15.27;;
4182;SDS011;2105;52.300;9.182;2023-05-18T08:28:27;19.10;;;14.47;;
4182;SDS011;2105;52.300;9.182;2023-05-18T08:30:54;15.53;;;14.20;;
4182;SDS011;2105;52.300;9.182;2023-05-18T08:33:22;26.90;;;15.53;;
4182;SDS011;2105;52.300;9.182;2023-05-18T08:35:49;21.57;;;15.17;;
4182;SDS011;2105;52.300;9.182;2023-05-18T08:38:16;17.93;;;14.93;;
4182;SDS011;2105;52.300;9.182;2023-05-18T08:40:45;17.40;;;14.60;;
4182;SDS011;2105;52.300;9.182;2023-05-18T08:43:19;15.90;;;13.83;;
4182;SDS011;2105;52.300;9.182;2023-05-18T08:45:47;15.97;;;14.47;;
4182;SDS011;2105;52.300;9.182;2023-05-18T08:48:17;18.20;;;15.90;;
4182;SDS011;2105;52.300;9.182;2023-05-18T08:50:48;17.10;;;14.80;;
4182;SDS011;2105;52.300;9.182;2023-05-18T08:53:18;22.80;;;15.03;;
4182;SDS011;2105;52.300;9.182;2023-05-18T08:55:47;23.07;;;14.90;;
4182;SDS011;2105;52.300;9.182;2023-05-18T08:58:16;18.37;;;15.30;;
4182;SDS011;2105;52.300;9.182;2023-05-18T09:00:45;18.00;;;15.40;;
4182;SDS011;2105;52.300;9.182;2023-05-18T09:03:17;16.93;;;15.00;;
4182;SDS011;2105;52.300;9.182;2023-05-18T09:05:44;20.73;;;15.07;;
4182;SDS011;2105;52.300;9.182;2023-05-18T09:08:13;16.00;;;14.50;;
4182;SDS011;2105;52.300;9.182;2023-05-18T09:10:40;19.50;;;15.47;;
4182;SDS011;2105;52.300;9.182;2023-05-18T09:13:07;18.40;;;14.33;;
4182;SDS011;2105;52.300;9.182;2023-05-18T09:15:36;17.73;;;16.00;;
4182;SDS011;2105;52.300;9.182;2023-05-18T09:18:02;17.30;;;15.50;;
4182;SDS011;2105;52.300;9.182;2023-05-18T09:20:29;18.30;;;16.03;;
4182;SDS011;2105;52.300;9.182;2023-05-18T09:22:56;16.90;;;15.20;;
4182;SDS011;2105;52.300;9.182;2023-05-18T09:25:25;18.63;;;15.50;;
4182;SDS011;2105;52.300;9.182;2023-05-18T09:27:54;20.53;;;15.90;;
4182;SDS011;2105;52.300;9.182;2023-05-18T09:30:21;17.33;;;15.50;;
4182;SDS011;2105;52.300;9.182;2023-05-18T09:32:50;19.30;;;16.27;;
4182;SDS011;2105;52.300;9.182;2023-05-18T09:35:18;20.97;;;15.47;;
4182;SDS011;2105;52.300;9.182;2023-05-18T09:37:45;16.83;;;15.03;;
4182;SDS011;2105;52.300;9.182;2023-05-18T09:40:12;17.80;;;16.00;;
4182;SDS011;2105;52.300;9.182;2023-05-18T09:42:42;17.10;;;14.73;;
4182;SDS011;2105;52.300;9.182;2023-05-18T09:45:16;16.67;;;14.97;;
4182;SDS011;2105;52.300;9.182;2023-05-18T09:47:58;17.00;;;15.10;;
4182;SDS011;2105;52.300;9.182;2023-05-18T09:50:42;17.37;;;15.57;;
4182;SDS011;2105;52.300;9.182;2023-05-18T09:53:12;19.20;;;15.83;;
4182;SDS011;2105;52.300;9.182;2023-05-18T09:55:43;20.97;;;15.97;;
4182;SDS011;2105;52.300;9.182;2023-05-18T09:58:19;17.33;;;15.83;;
4182;SDS011;2105;52.300;9.182;2023-05-18T10:00:47;20.00;;;15.17;;
4182;SDS011;2105;52.300;9.182;2023-05-18T10:03:23;24.67;;;17.43;;
4182;SDS011;2105;52.300;9.182;2023-05-18T10:05:51;18.20;;;16.30;;
4182;SDS011;2105;52.300;9.182;2023-05-18T10:08:20;18.00;;;16.10;;
4182;SDS011;2105;52.300;9.182;2023-05-18T10:10:54;16.90;;;15.20;;
4182;SDS011;2105;52.300;9.182;2023-05-18T10:13:24;18.77;;;16.10;;
4182;SDS011;2105;52.300;9.182;2023-05-18T10:15:54;19.37;;;16.83;;
4182;SDS011;2105;52.300;9.182;2023-05-18T10:18:23;17.10;;;15.30;;
4182;SDS011;2105;52.300;9.182;2023-05-18T10:20:59;17.40;;;15.60;;
4182;SDS011;2105;52.300;9.182;2023-05-18T10:23:29;19.10;;;15.30;;
4182;SDS011;2105;52.300;9.182;2023-05-18T10:25:57;20.30;;;15.27;;
4182;SDS011;2105;52.300;9.182;2023-05-18T10:28:26;16.90;;;15.30;;
4182;SDS011;2105;52.300;9.182;2023-05-18T10:30:58;16.30;;;14.80;;
4182;SDS011;2105;52.300;9.182;2023-05-18T10:33:40;17.37;;;15.47;;
4182;SDS011;2105;52.300;9.182;2023-05-18T10:36:17;17.07;;;15.50;;
4182;SDS011;2105;52.300;9.182;2023-05-18T10:38:46;25.97;;;16.63;;
4182;SDS011;2105;52.300;9.182;2023-05-18T10:41:15;17.50;;;15.77;;
4182;SDS011;2105;52.300;9.182;2023-05-18T10:43:48;19.57;;;16.47;;
4182;SDS011;2105;52.300;9.182;2023-05-18T10:46:15;22.10;;;15.40;;
4182;SDS011;2105;52.300;9.182;2023-05-18T10:48:44;18.83;;;16.00;;
4182;SDS011;2105;52.300;9.182;2023-05-18T10:51:15;20.10;;;15.90;;
4182;SDS011;2105;52.300;9.182;2023-05-18T10:53:45;17.80;;;15.70;;
4182;SDS011;2105;52.300;9.182;2023-05-18T10:56:13;22.93;;;16.10;;
4182;SDS011;2105;52.300;9.182;2023-05-18T10:58:54;22.23;;;15.70;;
4182;SDS011;2105;52.300;9.182;2023-05-18T11:01:21;18.70;;;15.40;;
4182;SDS011;2105;52.300;9.182;2023-05-18T11:03:48;17.13;;;15.20;;
4182;SDS011;2105;52.300;9.182;2023-05-18T11:06:22;23.07;;;15.70;;
4182;SDS011;2105;52.300;9.182;2023-05-18T11:08:56;19.80;;;16.00;;
4182;SDS011;2105;52.300;9.182;2023-05-18T11:11:24;18.00;;;15.50;;
4182;SDS011;2105;52.300;9.182;2023-05-18T11:13:58;22.03;;;15.63;;
4182;SDS011;2105;52.300;9.182;2023-05-18T11:16:31;19.23;;;15.70;;
4182;SDS011;2105;52.300;9.182;2023-05-18T11:19:03;16.90;;;15.30;;
4182;SDS011;2105;52.300;9.182;2023-05-18T11:21:50;17.90;;;15.20;;
4182;SDS011;2105;52.300;9.182;2023-05-18T11:24:20;17.43;;;15.57;;
4182;SDS011;2105;52.300;9.182;2023-05-18T11:26:53;21.23;;;16.30;;
4182;SDS011;2105;52.300;9.182;2023-05-18T11:29:23;17.23;;;15.53;;
4182;SDS011;2105;52.300;9.182;2023-05-18T11:31:55;26.97;;;15.80;;
4182;SDS011;2105;52.300;9.182;2023-05-18T11:34:35;17.23;;;15.80;;
4182;SDS011;2105;52.300;9.182;2023-05-18T11:37:04;17.80;;;16.10;;
4182;SDS011;2105;52.300;9.182;2023-05-18T11:39:33;17.30;;;15.50;;
4182;SDS011;2105;52.300;9.182;2023-05-18T11:42:01;18.97;;;15.50;;
4182;SDS011;2105;52.300;9.182;2023-05-18T11:44:32;17.37;;;15.47;;
4182;SDS011;2105;52.300;9.182;2023-05-18T11:47:00;16.53;;;15.03;;
4182;SDS011;2105;52.300;9.182;2023-05-18T11:49:28;17.80;;;15.23;;
4182;SDS011;2105;52.300;9.182;2023-05-18T11:52:00;17.10;;;15.17;;
4182;SDS011;2105;52.300;9.182;2023-05-18T11:54:33;17.60;;;15.47;;
4182;SDS011;2105;52.300;9.182;2023-05-18T11:57:06;17.33;;;15.73;;
4182;SDS011;2105;52.300;9.182;2023-05-18T11:59:37;19.93;;;16.17;;
4182;SDS011;2105;52.300;9.182;2023-05-18T12:02:07;19.73;;;15.53;;
4182;SDS011;2105;52.300;9.182;2023-05-18T12:04:40;21.93;;;16.27;;
4182;SDS011;2105;52.300;9.182;2023-05-18T12:07:08;17.57;;;15.97;;
4182;SDS011;2105;52.300;9.182;2023-05-18T12:09:36;17.63;;;16.13;;
4182;SDS011;2105;52.300;9.182;2023-05-18T12:12:06;22.67;;;16.60;;
4182;SDS011;2105;52.300;9.182;2023-05-18T12:14:37;17.70;;;16.00;;
4182;SDS011;2105;52.300;9.182;2023-05-18T12:17:06;18.17;;;16.17;;
4182;SDS011;2105;52.300;9.182;2023-05-18T12:19:40;17.30;;;15.60;;
4182;SDS011;2105;52.300;9.182;2023-05-18T12:22:11;17.70;;;16.00;;
4182;SDS011;2105;52.300;9.182;2023-05-18T12:24:38;20.30;;;16.13;;
4182;SDS011;2105;52.300;9.182;2023-05-18T12:27:06;18.77;;;15.93;;
4182;SDS011;2105;52.300;9.182;2023-05-18T12:29:37;20.00;;;15.50;;
4182;SDS011;2105;52.300;9.182;2023-05-18T12:32:06;17.03;;;15.40;;
4182;SDS011;2105;52.300;9.182;2023-05-18T12:34:37;17.27;;;15.47;;
4182;SDS011;2105;52.300;9.182;2023-05-18T12:37:05;28.63;;;16.37;;
4182;SDS011;2105;52.300;9.182;2023-05-18T12:39:32;17.57;;;15.83;;
4182;SDS011;2105;52.300;9.182;2023-05-18T12:42:09;16.90;;;15.40;;
4182;SDS011;2105;52.300;9.182;2023-05-18T12:44:40;17.33;;;15.57;;
4182;SDS011;2105;52.300;9.182;2023-05-18T12:47:09;19.07;;;16.73;;
4182;SDS011;2105;52.300;9.182;2023-05-18T12:49:37;18.03;;;16.20;;
4182;SDS011;2105;52.300;9.182;2023-05-18T12:52:11;18.60;;;16.67;;
4182;SDS011;2105;52.300;9.182;2023-05-18T12:54:48;19.27;;;16.70;;
4182;SDS011;2105;52.300;9.182;2023-05-18T12:57:19;25.33;;;16.60;;
4182;SDS011;2105;52.300;9.182;2023-05-18T12:59:51;18.67;;;16.70;;
4182;SDS011;2105;52.300;9.182;2023-05-18T13:02:26;18.77;;;16.73;;
4182;SDS011;2105;52.300;9.182;2023-05-18T13:05:03;18.13;;;16.30;;
4182;SDS011;2105;52.300;9.182;2023-05-18T13:07:34;19.07;;;17.13;;
4182;SDS011;2105;52.300;9.182;2023-05-18T13:10:07;18.70;;;16.67;;
4182;SDS011;2105;52.300;9.182;2023-05-18T13:12:38;18.43;;;16.67;;
4182;SDS011;2105;52.300;9.182;2023-05-18T13:15:09;18.13;;;16.40;;
4182;SDS011;2105;52.300;9.182;2023-05-18T13:17:38;18.53;;;16.63;;
4182;SDS011;2105;52.300;9.182;2023-05-18T13:20:12;18.03;;;16.20;;
4182;SDS011;2105;52.300;9.182;2023-05-18T13:22:40;18.00;;;16.17;;
4182;SDS011;2105;52.300;9.182;2023-05-18T13:25:10;17.90;;;16.40;;
4182;SDS011;2105;52.300;9.182;2023-05-18T13:27:37;21.67;;;17.63;;
4182;SDS011;2105;52.300;9.182;2023-05-18T13:30:05;20.70;;;16.77;;
4182;SDS011;2105;52.300;9.182;2023-05-18T13:32:34;18.13;;;16.20;;
4182;SDS011;2105;52.300;9.182;2023-05-18T13:35:01;19.53;;;17.20;;
4182;SDS011;2105;52.300;9.182;2023-05-18T13:37:28;29.63;;;16.67;;
4182;SDS011;2105;52.300;9.182;2023-05-18T13:39:57;18.37;;;16.47;;
4182;SDS011;2105;52.300;9.182;2023-05-18T13:42:24;18.30;;;16.37;;
4182;SDS011;2105;52.300;9.182;2023-05-18T13:44:51;18.20;;;16.47;;
4182;SDS011;2105;52.300;9.182;2023-05-18T13:47:19;20.03;;;16.90;;
4182;SDS011;2105;52.300;9.182;2023-05-18T13:49:47;17.93;;;16.23;;
4182;SDS011;2105;52.300;9.182;2023-05-18T13:52:14;20.23;;;17.00;;
4182;SDS011;2105;52.300;9.182;2023-05-18T13:54:42;18.90;;;16.90;;
4182;SDS011;2105;52.300;9.182;2023-05-18T13:57:09;19.37;;;16.10;;
4182;SDS011;2105;52.300;9.182;2023-05-18T13:59:36;24.20;;;16.70;;
4182;SDS011;2105;52.300;9.182;2023-05-18T14:02:03;19.80;;;16.60;;
4182;SDS011;2105;52.300;9.182;2023-05-18T14:04:43;18.80;;;17.00;;
4182;SDS011;2105;52.300;9.182;2023-05-18T14:07:15;19.40;;;17.33;;
4182;SDS011;2105;52.300;9.182;2023-05-18T14:10:24;18.97;;;17.00;;
4182;SDS011;2105;52.300;9.182;2023-05-18T14:12:57;18.60;;;16.83;;
4182;SDS011;2105;52.300;9.182;2023-05-18T14:18:45;19.33;;;17.27;;
4182;SDS011;2105;52.300;9.182;2023-05-18T14:21:34;18.73;;;16.90;;
4182;SDS011;2105;52.300;9.182;2023-05-18T14:34:49;18.97;;;16.17;;
4182;SDS011;2105;52.300;9.182;2023-05-18T14:43:32;18.80;;;16.43;;
4182;SDS011;2105;52.300;9.182;2023-05-18T15:43:16;17.43;;;15.73;;
4182;SDS011;2105;52.300;9.182;2023-05-18T15:49:42;17.57;;;15.90;;
4182;SDS011;2105;52.300;9.182;2023-05-18T15:52:09;23.47;;;16.60;;
4182;SDS011;2105;52.300;9.182;2023-05-18T15:54:35;17.53;;;15.63;;
4182;SDS011;2105;52.300;9.182;2023-05-18T15:57:02;17.83;;;16.33;;
4182;SDS011;2105;52.300;9.182;2023-05-18T15:59:31;17.97;;;16.23;;
4182;SDS011;2105;52.300;9.182;2023-05-18T16:01:58;18.90;;;16.80;;
4182;SDS011;2105;52.300;9.182;2023-05-18T16:04:25;17.63;;;16.10;;
4182;SDS011;2105;52.300;9.182;2023-05-18T16:06:52;18.13;;;16.47;;
4182;SDS011;2105;52.300;9.182;2023-05-18T16:09:19;17.63;;;16.03;;
4182;SDS011;2105;52.300;9.182;2023-05-18T16:11:45;17.47;;;16.03;;
4182;SDS011;2105;52.300;9.182;2023-05-18T16:14:12;18.53;;;16.03;;
4182;SDS011;2105;52.300;9.182;2023-05-18T16:16:40;17.70;;;15.97;;
4182;SDS011;2105;52.300;9.182;2023-05-18T16:19:07;17.50;;;16.00;;
4182;SDS011;2105;52.300;9.182;2023-05-18T16:21:34;23.73;;;17.20;;
4182;SDS011;2105;52.300;9.182;2023-05-18T16:24:00;18.47;;;16.57;;
4182;SDS011;2105;52.300;9.182;2023-05-18T16:26:27;25.00;;;16.57;;